createdAt,value
2018-01-06T00:00:36.605Z,5.84
2018-01-06T00:01:36.857Z,5.96
2018-01-06T00:02:36.829Z,5.89
2018-01-06T00:03:37.123Z,5.89
2018-01-06T00:04:36.815Z,5.91
2018-01-06T00:05:36.798Z,5.8
2018-01-06T00:06:36.770Z,5.85
2018-01-06T00:07:36.763Z,5.82
2018-01-06T00:08:36.489Z,5.87
2018-01-06T00:09:36.720Z,5.8
2018-01-06T00:10:36.720Z,5.81
2018-01-06T00:11:36.415Z,5.77
2018-01-06T00:12:36.684Z,5.8
2018-01-06T00:13:36.396Z,5.8
2018-01-06T00:14:36.643Z,5.8
2018-01-06T00:15:36.648Z,5.81
2018-01-06T00:16:36.639Z,5.82
2018-01-06T00:17:36.914Z,5.8
2018-01-06T00:18:36.597Z,5.8
2018-01-06T00:19:36.603Z,5.78
2018-01-06T00:20:36.588Z,5.82
2018-01-06T00:21:36.563Z,5.84
2018-01-06T00:22:36.544Z,5.77
2018-01-06T00:23:36.518Z,5.78
2018-01-06T00:24:36.537Z,5.77
2018-01-06T00:25:36.515Z,5.73
2018-01-06T00:26:36.190Z,5.69
2018-01-06T00:27:36.466Z,5.81
2018-01-06T00:28:36.465Z,5.78
2018-01-06T00:29:36.162Z,5.75
2018-01-06T00:30:36.166Z,5.72
2018-01-06T00:31:36.419Z,5.78
2018-01-06T00:32:36.427Z,5.8
2018-01-06T00:33:36.380Z,5.72
2018-01-06T00:34:36.081Z,5.84
2018-01-06T00:35:36.367Z,5.85
2018-01-06T00:36:36.370Z,5.75
2018-01-06T00:37:36.064Z,5.82
2018-01-06T00:38:36.054Z,5.84
2018-01-06T00:39:36.314Z,5.89
2018-01-06T00:40:36.302Z,5.84
2018-01-06T00:41:35.994Z,5.96
2018-01-06T00:42:36.551Z,5.89
2018-01-06T00:43:36.226Z,5.81
2018-01-06T00:44:35.971Z,5.88
2018-01-06T00:45:36.225Z,5.92
2018-01-06T00:46:35.926Z,5.88
2018-01-06T00:47:36.176Z,5.96
2018-01-06T00:48:35.907Z,5.89
2018-01-06T00:49:35.882Z,5.88
2018-01-06T00:50:36.446Z,5.91
2018-01-06T00:51:36.100Z,5.96
2018-01-06T00:52:36.086Z,5.84
2018-01-06T00:53:36.105Z,5.88
2018-01-06T00:54:35.801Z,5.96
2018-01-06T00:55:35.787Z,5.98
2018-01-06T00:56:35.762Z,5.82
2018-01-06T00:57:35.747Z,5.89
2018-01-06T00:58:35.764Z,5.92
2018-01-06T00:59:35.992Z,5.92
2018-01-06T01:00:35.989Z,5.85
2018-01-06T01:01:36.246Z,5.88
2018-01-06T01:02:35.678Z,5.77
2018-01-06T01:03:35.951Z,5.88
2018-01-06T01:04:35.651Z,5.88
2018-01-06T01:05:35.923Z,5.88
2018-01-06T01:06:36.163Z,5.84
2018-01-06T01:07:35.875Z,5.82
2018-01-06T01:08:35.863Z,5.85
2018-01-06T01:09:36.152Z,5.85
2018-01-06T01:10:35.835Z,5.88
2018-01-06T01:11:36.120Z,5.88
2018-01-06T01:12:35.807Z,5.82
2018-01-06T01:13:35.535Z,5.85
2018-01-06T01:14:35.783Z,5.82
2018-01-06T01:15:35.764Z,5.87
2018-01-06T01:16:35.755Z,5.89
2018-01-06T01:17:35.739Z,5.88
2018-01-06T01:18:36.000Z,5.91
2018-01-06T01:19:35.440Z,5.87
2018-01-06T01:20:35.708Z,5.98
2018-01-06T01:21:35.413Z,5.88
2018-01-06T01:22:35.935Z,5.88
2018-01-06T01:23:35.662Z,5.98
2018-01-06T01:24:35.643Z,5.99
2018-01-06T01:25:35.629Z,5.89
2018-01-06T01:26:35.345Z,5.85
2018-01-06T01:27:35.332Z,5.85
2018-01-06T01:28:35.593Z,5.89
2018-01-06T01:29:35.301Z,5.89
2018-01-06T01:30:35.561Z,5.95
2018-01-06T01:31:35.272Z,5.96
2018-01-06T01:32:35.530Z,5.92
2018-01-06T01:33:35.246Z,5.95
2018-01-06T01:34:35.228Z,5.91
2018-01-06T01:35:35.229Z,5.89
2018-01-06T01:36:35.200Z,5.89
2018-01-06T01:37:35.461Z,5.88
2018-01-06T01:38:35.177Z,5.91
2018-01-06T01:39:35.162Z,5.99
2018-01-06T01:40:35.415Z,5.96
2018-01-06T01:41:35.408Z,5.88
2018-01-06T01:42:35.398Z,5.91
2018-01-06T01:43:35.378Z,5.98
2018-01-06T01:44:35.091Z,5.88
2018-01-06T01:45:35.079Z,5.89
2018-01-06T01:46:35.063Z,5.89
2018-01-06T01:47:35.052Z,5.91
2018-01-06T01:48:35.042Z,5.91
2018-01-06T01:49:35.022Z,5.91
2018-01-06T01:50:35.011Z,5.96
2018-01-06T01:51:35.318Z,5.91
2018-01-06T01:52:34.983Z,5.84
2018-01-06T01:53:35.235Z,5.89
2018-01-06T01:54:35.225Z,5.88
2018-01-06T01:55:35.208Z,5.95
2018-01-06T01:56:35.469Z,5.89
2018-01-06T01:57:35.190Z,5.85
2018-01-06T01:58:35.445Z,5.98
2018-01-06T01:59:35.169Z,5.95
2018-01-06T02:00:35.140Z,5.88
2018-01-06T02:01:35.398Z,5.98
2018-01-06T02:02:35.388Z,5.89
2018-01-06T02:03:34.827Z,6
2018-01-06T02:04:34.813Z,5.91
2018-01-06T02:05:35.070Z,5.85
2018-01-06T02:06:34.788Z,5.96
2018-01-06T02:07:34.772Z,5.95
2018-01-06T02:08:35.036Z,5.91
2018-01-06T02:09:35.290Z,5.85
2018-01-06T02:10:34.999Z,5.96
2018-01-06T02:11:34.988Z,5.87
2018-01-06T02:12:35.261Z,6
2018-01-06T02:13:34.959Z,5.96
2018-01-06T02:14:34.680Z,5.92
2018-01-06T02:15:34.937Z,5.84
2018-01-06T02:16:34.924Z,5.84
2018-01-06T02:17:34.656Z,5.88
2018-01-06T02:18:34.625Z,5.91
2018-01-06T02:19:34.603Z,5.87
2018-01-06T02:20:34.878Z,5.89
2018-01-06T02:21:34.579Z,5.99
2018-01-06T02:22:34.583Z,6
2018-01-06T02:23:34.549Z,5.92
2018-01-06T02:24:34.807Z,5.95
2018-01-06T02:25:34.799Z,5.95
2018-01-06T02:26:35.053Z,5.85
2018-01-06T02:27:34.497Z,5.88
2018-01-06T02:28:35.026Z,5.98
2018-01-06T02:29:34.748Z,5.95
2018-01-06T02:30:34.723Z,6
2018-01-06T02:31:34.446Z,5.96
2018-01-06T02:32:34.435Z,6.03
2018-01-06T02:33:34.703Z,5.96
2018-01-06T02:34:34.943Z,5.96
2018-01-06T02:35:34.386Z,5.89
2018-01-06T02:36:34.913Z,5.88
2018-01-06T02:37:34.374Z,5.99
2018-01-06T02:38:34.346Z,5.95
2018-01-06T02:39:34.332Z,5.89
2018-01-06T02:40:34.591Z,5.92
2018-01-06T02:41:34.573Z,5.89
2018-01-06T02:42:34.577Z,5.72
2018-01-06T02:43:34.569Z,5.82
2018-01-06T02:44:34.264Z,5.8
2018-01-06T02:45:34.244Z,5.87
2018-01-06T02:46:34.233Z,5.8
2018-01-06T02:47:34.771Z,5.82
2018-01-06T02:48:34.748Z,5.77
2018-01-06T02:49:34.740Z,5.87
2018-01-06T02:50:34.451Z,5.73
2018-01-06T02:51:34.187Z,5.8
2018-01-06T02:52:34.419Z,5.77
2018-01-06T02:53:34.135Z,5.75
2018-01-06T02:54:34.435Z,5.75
2018-01-06T02:55:34.108Z,5.8
2018-01-06T02:56:34.387Z,5.7
2018-01-06T02:57:34.353Z,5.81
2018-01-06T02:58:34.358Z,5.73
2018-01-06T02:59:34.325Z,5.81
2018-01-06T03:00:34.308Z,5.81
2018-01-06T03:01:34.296Z,5.75
2018-01-06T03:02:34.283Z,5.8
2018-01-06T03:03:34.001Z,5.84
2018-01-06T03:04:34.003Z,5.82
2018-01-06T03:05:33.986Z,5.82
2018-01-06T03:06:34.229Z,5.81
2018-01-06T03:07:34.218Z,5.77
2018-01-06T03:08:33.934Z,5.78
2018-01-06T03:09:33.911Z,5.77
2018-01-06T03:10:33.917Z,5.82
2018-01-06T03:11:34.169Z,5.77
2018-01-06T03:12:33.874Z,5.78
2018-01-06T03:13:33.858Z,5.7
2018-01-06T03:14:33.846Z,5.8
2018-01-06T03:15:34.106Z,5.81
2018-01-06T03:16:34.194Z,5.8
2018-01-06T03:17:34.361Z,5.81
2018-01-06T03:18:33.789Z,5.78
2018-01-06T03:19:34.049Z,5.78
2018-01-06T03:20:34.037Z,5.85
2018-01-06T03:21:34.016Z,5.87
2018-01-06T03:22:34.001Z,5.95
2018-01-06T03:23:33.991Z,5.95
2018-01-06T03:24:33.725Z,5.87
2018-01-06T03:25:33.699Z,5.88
2018-01-06T03:26:33.680Z,5.88
2018-01-06T03:27:33.664Z,5.87
2018-01-06T03:28:34.198Z,5.91
2018-01-06T03:29:33.924Z,5.92
2018-01-06T03:30:33.900Z,5.92
2018-01-06T03:31:33.882Z,5.98
2018-01-06T03:32:33.877Z,6
2018-01-06T03:33:33.581Z,5.96
2018-01-06T03:34:33.863Z,5.99
2018-01-06T03:35:33.875Z,6.02
2018-01-06T03:36:33.823Z,6
2018-01-06T03:37:33.525Z,5.98
2018-01-06T03:38:34.052Z,6.02
2018-01-06T03:39:33.767Z,6.06
2018-01-06T03:40:33.756Z,6
2018-01-06T03:41:33.742Z,6
2018-01-06T03:42:33.725Z,6.06
2018-01-06T03:43:33.448Z,6.05
2018-01-06T03:44:33.698Z,6.05
2018-01-06T03:45:33.689Z,6.05
2018-01-06T03:46:33.402Z,6
2018-01-06T03:47:33.387Z,6.05
2018-01-06T03:48:33.919Z,6.02
2018-01-06T03:49:33.632Z,6.05
2018-01-06T03:50:33.625Z,6.05
2018-01-06T03:51:33.608Z,6.02
2018-01-06T03:52:33.322Z,6.05
2018-01-06T03:53:33.598Z,6.05
2018-01-06T03:54:33.599Z,6.06
2018-01-06T03:55:33.570Z,6.05
2018-01-06T03:56:33.554Z,6.05
2018-01-06T03:57:33.250Z,6.07
2018-01-06T03:58:33.237Z,6.09
2018-01-06T03:59:33.496Z,6.03
2018-01-06T04:00:33.499Z,6.1
2018-01-06T04:01:33.738Z,6.07
2018-01-06T04:02:33.454Z,6.15
2018-01-06T04:03:33.439Z,6.06
2018-01-06T04:04:33.430Z,6
2018-01-06T04:05:33.692Z,6.17
2018-01-06T04:06:33.406Z,6.13
2018-01-06T04:07:33.121Z,6.07
2018-01-06T04:08:33.381Z,6.13
2018-01-06T04:09:33.331Z,6.14
2018-01-06T04:10:33.848Z,6.07
2018-01-06T04:11:33.618Z,6.05
2018-01-06T04:12:33.363Z,6.13
2018-01-06T04:13:33.551Z,6.1
2018-01-06T04:14:33.286Z,6.06
2018-01-06T04:15:33.224Z,6.18
2018-01-06T04:16:33.553Z,6.14
2018-01-06T04:17:33.885Z,6.13
2018-01-06T04:18:33.538Z,6.1
2018-01-06T04:19:33.096Z,6.05
2018-01-06T04:20:33.316Z,6.05
2018-01-06T04:21:33.274Z,6
2018-01-06T04:22:32.998Z,5.98
2018-01-06T04:23:32.995Z,6
2018-01-06T04:24:33.334Z,5.91
2018-01-06T04:25:33.488Z,5.88
2018-01-06T04:26:33.273Z,5.89
2018-01-06T04:27:33.294Z,5.96
2018-01-06T04:28:33.115Z,5.87
2018-01-06T04:29:33.578Z,5.95
2018-01-06T04:30:33.204Z,5.75
2018-01-06T04:31:33.474Z,5.87
2018-01-06T04:32:33.231Z,5.81
2018-01-06T04:33:32.856Z,5.78
2018-01-06T04:34:33.449Z,5.84
2018-01-06T04:35:33.213Z,5.85
2018-01-06T04:36:32.799Z,5.89
2018-01-06T04:37:33.278Z,5.92
2018-01-06T04:38:33.211Z,5.85
2018-01-06T04:39:33.203Z,5.91
2018-01-06T04:40:33.463Z,5.88
2018-01-06T04:41:32.916Z,5.88
2018-01-06T04:42:33.163Z,5.85
2018-01-06T04:43:32.864Z,6
2018-01-06T04:44:33.440Z,5.92
2018-01-06T04:45:33.137Z,5.96
2018-01-06T04:46:32.577Z,5.89
2018-01-06T04:47:32.563Z,5.89
2018-01-06T04:48:32.913Z,5.92
2018-01-06T04:49:32.892Z,5.89
2018-01-06T04:50:32.626Z,5.8
2018-01-06T04:51:33.452Z,5.77
2018-01-06T04:52:33.208Z,5.85
2018-01-06T04:53:32.626Z,5.81
2018-01-06T04:54:32.839Z,5.77
2018-01-06T04:55:32.841Z,5.72
2018-01-06T04:56:32.518Z,5.77
2018-01-06T04:57:32.763Z,5.81
2018-01-06T04:58:33.046Z,5.75
2018-01-06T04:59:32.816Z,5.72
2018-01-06T05:00:32.513Z,5.7
2018-01-06T05:01:32.776Z,5.72
2018-01-06T05:02:32.717Z,5.64
2018-01-06T05:03:32.451Z,5.66
2018-01-06T05:04:32.778Z,5.72
2018-01-06T05:05:32.582Z,5.7
2018-01-06T05:06:32.302Z,5.72
2018-01-06T05:07:32.283Z,5.75
2018-01-06T05:08:32.275Z,5.72
2018-01-06T05:09:32.534Z,5.72
2018-01-06T05:10:32.534Z,5.75
2018-01-06T05:11:32.500Z,5.75
2018-01-06T05:12:32.226Z,5.73
2018-01-06T05:13:32.608Z,5.73
2018-01-06T05:14:32.564Z,5.73
2018-01-06T05:15:32.872Z,5.69
2018-01-06T05:16:32.246Z,5.73
2018-01-06T05:17:32.598Z,5.72
2018-01-06T05:18:32.197Z,5.75
2018-01-06T05:19:32.462Z,5.77
2018-01-06T05:20:32.190Z,5.73
2018-01-06T05:21:32.170Z,5.78
2018-01-06T05:22:32.161Z,5.8
2018-01-06T05:23:32.624Z,5.75
2018-01-06T05:24:32.858Z,5.73
2018-01-06T05:25:32.719Z,5.82
2018-01-06T05:26:32.540Z,5.75
2018-01-06T05:27:32.536Z,5.81
2018-01-06T05:28:32.185Z,5.81
2018-01-06T05:29:32.266Z,5.78
2018-01-06T05:30:32.660Z,5.77
2018-01-06T05:31:31.974Z,5.84
2018-01-06T05:32:31.945Z,5.82
2018-01-06T05:33:32.487Z,5.72
2018-01-06T05:34:31.914Z,5.7
2018-01-06T05:35:32.249Z,5.67
2018-01-06T05:36:32.454Z,5.67
2018-01-06T05:37:32.161Z,5.62
2018-01-06T05:38:32.546Z,5.7
2018-01-06T05:39:32.393Z,5.66
2018-01-06T05:40:31.823Z,5.63
2018-01-06T05:41:32.087Z,5.62
2018-01-06T05:42:32.071Z,5.57
2018-01-06T05:43:31.784Z,5.63
2018-01-06T05:44:32.042Z,5.59
2018-01-06T05:45:31.760Z,5.63
2018-01-06T05:46:32.019Z,5.6
2018-01-06T05:47:32.001Z,5.59
2018-01-06T05:48:32.005Z,5.63
2018-01-06T05:49:32.029Z,5.59
2018-01-06T05:50:32.019Z,5.64
2018-01-06T05:51:32.005Z,5.62
2018-01-06T05:52:32.002Z,5.67
2018-01-06T05:53:32.254Z,5.7
2018-01-06T05:54:31.674Z,5.75
2018-01-06T05:55:31.635Z,5.73
2018-01-06T05:56:32.153Z,5.75
2018-01-06T05:57:31.756Z,5.75
2018-01-06T05:58:31.785Z,5.75
2018-01-06T05:59:32.182Z,5.7
2018-01-06T06:00:32.077Z,5.75
2018-01-06T06:01:32.138Z,5.81
2018-01-06T06:02:32.310Z,5.8
2018-01-06T06:03:31.802Z,5.72
2018-01-06T06:04:32.321Z,5.8
2018-01-06T06:05:31.698Z,5.81
2018-01-06T06:06:31.687Z,5.73
2018-01-06T06:07:31.663Z,5.75
2018-01-06T06:08:32.062Z,5.7
2018-01-06T06:09:31.652Z,5.69
2018-01-06T06:10:31.949Z,5.63
2018-01-06T06:11:31.907Z,5.59
2018-01-06T06:12:31.652Z,5.48
2018-01-06T06:13:31.605Z,5.46
2018-01-06T06:14:31.372Z,5.41
2018-01-06T06:15:31.613Z,5.45
2018-01-06T06:16:31.594Z,5.3
2018-01-06T06:17:31.310Z,5.24
2018-01-06T06:18:31.783Z,5.13
2018-01-06T06:19:31.572Z,5.24
2018-01-06T06:20:31.540Z,5.16
2018-01-06T06:21:31.528Z,5.1
2018-01-06T06:22:31.238Z,5.06
2018-01-06T06:23:31.528Z,5.02
2018-01-06T06:24:31.482Z,4.92
2018-01-06T06:25:31.198Z,4.97
2018-01-06T06:26:31.725Z,4.88
2018-01-06T06:27:31.454Z,4.87
2018-01-06T06:28:31.155Z,4.78
2018-01-06T06:29:31.416Z,4.65
2018-01-06T06:30:31.400Z,4.6
2018-01-06T06:31:31.387Z,4.65
2018-01-06T06:32:31.638Z,4.51
2018-01-06T06:33:31.626Z,4.51
2018-01-06T06:34:31.074Z,4.47
2018-01-06T06:35:31.328Z,4.53
2018-01-06T06:36:31.063Z,4.5
2018-01-06T06:37:31.029Z,4.48
2018-01-06T06:38:31.294Z,4.44
2018-01-06T06:39:30.998Z,4.46
2018-01-06T06:40:30.989Z,4.5
2018-01-06T06:41:31.241Z,4.46
2018-01-06T06:42:31.222Z,4.51
2018-01-06T06:43:31.491Z,4.47
2018-01-06T06:44:31.469Z,4.46
2018-01-06T06:45:30.914Z,4.35
2018-01-06T06:46:30.895Z,4.36
2018-01-06T06:47:31.431Z,4.28
2018-01-06T06:48:30.875Z,4.36
2018-01-06T06:49:30.853Z,4.28
2018-01-06T06:50:31.380Z,4.29
2018-01-06T06:51:31.407Z,4.3
2018-01-06T06:52:30.832Z,4.22
2018-01-06T06:53:31.070Z,4.2
2018-01-06T06:54:31.328Z,4.24
2018-01-06T06:55:31.310Z,4.2
2018-01-06T06:56:30.754Z,4.24
2018-01-06T06:57:30.737Z,4.2
2018-01-06T06:58:30.998Z,4.17
2018-01-06T06:59:30.982Z,4.2
2018-01-06T07:00:30.970Z,4.11
2018-01-06T07:01:30.678Z,4.14
2018-01-06T07:02:30.664Z,4.18
2018-01-06T07:03:30.943Z,4.22
2018-01-06T07:04:30.634Z,4.24
2018-01-06T07:05:31.230Z,4.17
2018-01-06T07:06:30.607Z,4.24
2018-01-06T07:07:30.861Z,4.26
2018-01-06T07:08:30.586Z,4.24
2018-01-06T07:09:30.829Z,4.26
2018-01-06T07:10:30.844Z,4.2
2018-01-06T07:11:30.807Z,4.21
2018-01-06T07:12:30.787Z,4.29
2018-01-06T07:13:30.825Z,4.35
2018-01-06T07:14:30.816Z,4.3
2018-01-06T07:15:30.743Z,4.3
2018-01-06T07:16:30.726Z,4.32
2018-01-06T07:17:30.709Z,4.32
2018-01-06T07:18:30.431Z,4.3
2018-01-06T07:19:30.408Z,4.32
2018-01-06T07:20:30.398Z,4.38
2018-01-06T07:21:30.420Z,4.32
2018-01-06T07:22:30.364Z,4.3
2018-01-06T07:23:30.618Z,4.32
2018-01-06T07:24:30.334Z,4.3
2018-01-06T07:25:30.589Z,4.2
2018-01-06T07:26:30.863Z,4.21
2018-01-06T07:27:30.560Z,4.22
2018-01-06T07:28:30.549Z,4.18
2018-01-06T07:29:30.530Z,4.18
2018-01-06T07:30:30.517Z,4.12
2018-01-06T07:31:30.792Z,4.12
2018-01-06T07:32:30.216Z,4.18
2018-01-06T07:33:30.483Z,4.2
2018-01-06T07:34:30.186Z,4.26
2018-01-06T07:35:30.456Z,4.15
2018-01-06T07:36:30.798Z,4.15
2018-01-06T07:37:30.484Z,4.17
2018-01-06T07:38:30.684Z,4.14
2018-01-06T07:39:30.440Z,4.12
2018-01-06T07:40:30.660Z,3.96
2018-01-06T07:41:30.412Z,3.9
2018-01-06T07:42:30.063Z,3.97
2018-01-06T07:43:30.324Z,3.9
2018-01-06T07:44:30.046Z,3.92
2018-01-06T07:45:30.292Z,3.93
2018-01-06T07:46:30.289Z,3.94
2018-01-06T07:47:29.993Z,4
2018-01-06T07:48:30.243Z,4.03
2018-01-06T07:49:30.528Z,4.12
2018-01-06T07:50:30.491Z,4.15
2018-01-06T07:51:30.222Z,4.17
2018-01-06T07:52:29.914Z,4.21
2018-01-06T07:53:30.172Z,4.28
2018-01-06T07:54:29.885Z,4.35
2018-01-06T07:55:29.871Z,4.35
2018-01-06T07:56:30.129Z,4.46
2018-01-06T07:57:29.843Z,4.47
2018-01-06T07:58:30.102Z,4.48
2018-01-06T07:59:29.826Z,4.6
2018-01-06T08:00:30.070Z,4.58
2018-01-06T08:01:30.330Z,4.64
2018-01-06T08:02:29.765Z,4.68
2018-01-06T08:03:29.749Z,4.68
2018-01-06T08:04:30.281Z,4.68
2018-01-06T08:05:30.272Z,4.75
2018-01-06T08:06:29.978Z,4.75
2018-01-06T08:07:29.693Z,4.79
2018-01-06T08:08:29.948Z,4.87
2018-01-06T08:09:29.944Z,4.91
2018-01-06T08:10:29.648Z,4.9
2018-01-06T08:11:30.179Z,4.72
2018-01-06T08:12:29.620Z,4.74
2018-01-06T08:13:29.876Z,4.83
2018-01-06T08:14:30.128Z,4.66
2018-01-06T08:15:30.112Z,4.66
2018-01-06T08:16:29.558Z,4.65
2018-01-06T08:17:29.815Z,4.65
2018-01-06T08:18:29.808Z,4.66
2018-01-06T08:19:29.786Z,4.58
2018-01-06T08:20:29.792Z,4.64
2018-01-06T08:21:29.485Z,4.6
2018-01-06T08:22:29.744Z,4.69
2018-01-06T08:23:29.750Z,4.72
2018-01-06T08:24:29.713Z,4.66
2018-01-06T08:25:29.721Z,4.72
2018-01-06T08:26:29.960Z,4.76
2018-01-06T08:27:29.675Z,4.74
2018-01-06T08:28:29.391Z,4.78
2018-01-06T08:29:29.369Z,4.83
2018-01-06T08:30:29.638Z,4.68
2018-01-06T08:31:29.339Z,4.66
2018-01-06T08:32:29.594Z,4.66
2018-01-06T08:33:29.582Z,4.71
2018-01-06T08:34:29.300Z,4.65
2018-01-06T08:35:29.552Z,4.57
2018-01-06T08:36:29.812Z,4.48
2018-01-06T08:37:29.252Z,4.46
2018-01-06T08:38:29.235Z,4.51
2018-01-06T08:39:29.222Z,4.5
2018-01-06T08:40:29.482Z,4.47
2018-01-06T08:41:29.204Z,4.4
2018-01-06T08:42:29.453Z,4.56
2018-01-06T08:43:29.168Z,4.51
2018-01-06T08:44:29.159Z,4.5
2018-01-06T08:45:29.410Z,4.51
2018-01-06T08:46:29.427Z,4.5
2018-01-06T08:47:29.109Z,4.47
2018-01-06T08:48:29.376Z,4.47
2018-01-06T08:49:29.082Z,4.48
2018-01-06T08:50:29.602Z,4.53
2018-01-06T08:51:29.589Z,4.47
2018-01-06T08:52:29.033Z,4.56
2018-01-06T08:53:29.578Z,4.53
2018-01-06T08:54:29.282Z,4.51
2018-01-06T08:55:28.990Z,4.57
2018-01-06T08:56:28.973Z,4.54
2018-01-06T08:57:29.236Z,4.58
2018-01-06T08:58:28.967Z,4.46
2018-01-06T08:59:29.204Z,4.58
2018-01-06T09:00:28.920Z,4.58
2018-01-06T09:01:28.908Z,4.61
2018-01-06T09:02:29.433Z,4.61
2018-01-06T09:03:28.874Z,4.57
2018-01-06T09:04:29.129Z,4.58
2018-01-06T09:05:29.160Z,4.58
2018-01-06T09:06:28.828Z,4.69
2018-01-06T09:07:28.817Z,4.69
2018-01-06T09:08:28.797Z,4.68
2018-01-06T09:09:28.835Z,4.79
2018-01-06T09:10:29.312Z,4.78
2018-01-06T09:11:29.026Z,4.92
2018-01-06T09:12:29.284Z,4.98
2018-01-06T09:13:28.726Z,5.12
2018-01-06T09:14:28.712Z,5.12
2018-01-06T09:15:28.693Z,5.2
2018-01-06T09:16:28.715Z,5.28
2018-01-06T09:17:28.669Z,5.3
2018-01-06T09:18:28.939Z,5.3
2018-01-06T09:19:28.912Z,5.28
2018-01-06T09:20:28.900Z,5.15
2018-01-06T09:21:29.153Z,5.26
2018-01-06T09:22:28.866Z,5.24
2018-01-06T09:23:29.139Z,5.21
2018-01-06T09:24:28.570Z,5.24
2018-01-06T09:25:28.824Z,5.26
2018-01-06T09:26:28.816Z,5.23
2018-01-06T09:27:28.525Z,5.16
2018-01-06T09:28:28.524Z,5.18
2018-01-06T09:29:28.498Z,5.2
2018-01-06T09:30:28.757Z,5.21
2018-01-06T09:31:28.743Z,5.27
2018-01-06T09:32:28.451Z,5.26
2018-01-06T09:33:28.712Z,5.23
2018-01-06T09:34:28.695Z,5.39
2018-01-06T09:35:28.680Z,5.45
2018-01-06T09:36:28.948Z,5.41
2018-01-06T09:37:28.651Z,5.59
2018-01-06T09:38:28.371Z,5.55
2018-01-06T09:39:28.625Z,5.72
2018-01-06T09:40:28.884Z,5.72
2018-01-06T09:41:28.330Z,5.89
2018-01-06T09:42:28.334Z,5.88
2018-01-06T09:43:28.302Z,5.96
2018-01-06T09:44:28.557Z,6.1
2018-01-06T09:45:28.292Z,6.09
2018-01-06T09:46:28.526Z,6.31
2018-01-06T09:47:28.244Z,6.39
2018-01-06T09:48:28.770Z,6.44
2018-01-06T09:49:28.489Z,6.58
2018-01-06T09:50:28.203Z,6.6
2018-01-06T09:51:28.185Z,6.67
2018-01-06T09:52:28.464Z,6.79
2018-01-06T09:53:28.444Z,6.78
2018-01-06T09:54:28.181Z,6.82
2018-01-06T09:55:28.686Z,6.8
2018-01-06T09:56:28.400Z,6.88
2018-01-06T09:57:28.108Z,6.83
2018-01-06T09:58:28.638Z,6.86
2018-01-06T09:59:28.350Z,6.83
2018-01-06T10:00:28.348Z,6.9
2018-01-06T10:01:28.600Z,6.95
2018-01-06T10:02:28.368Z,7.01
2018-01-06T10:03:28.300Z,7.04
2018-01-06T10:04:28.289Z,7.15
2018-01-06T10:05:28.334Z,7.11
2018-01-06T10:06:28.259Z,7.23
2018-01-06T10:07:28.253Z,7.21
2018-01-06T10:08:28.519Z,7.27
2018-01-06T10:09:28.272Z,7.39
2018-01-06T10:10:27.936Z,7.39
2018-01-06T10:11:27.931Z,7.39
2018-01-06T10:12:27.917Z,7.41
2018-01-06T10:13:27.907Z,7.48
2018-01-06T10:14:28.437Z,7.4
2018-01-06T10:15:28.150Z,7.48
2018-01-06T10:16:28.137Z,7.51
2018-01-06T10:17:27.849Z,7.51
2018-01-06T10:18:27.843Z,7.51
2018-01-06T10:19:27.825Z,7.49
2018-01-06T10:20:28.368Z,7.54
2018-01-06T10:21:27.796Z,7.55
2018-01-06T10:22:27.793Z,7.45
2018-01-06T10:23:28.081Z,7.48
2018-01-06T10:24:28.028Z,7.45
2018-01-06T10:25:28.027Z,7.48
2018-01-06T10:26:27.754Z,7.47
2018-01-06T10:27:27.999Z,7.37
2018-01-06T10:28:27.976Z,7.48
2018-01-06T10:29:27.972Z,7.45
2018-01-06T10:30:28.228Z,7.44
2018-01-06T10:31:27.707Z,7.52
2018-01-06T10:32:27.934Z,7.48
2018-01-06T10:33:27.662Z,7.56
2018-01-06T10:34:27.932Z,7.59
2018-01-06T10:35:27.624Z,7.63
2018-01-06T10:36:27.887Z,7.67
2018-01-06T10:37:27.602Z,7.71
2018-01-06T10:38:28.129Z,7.63
2018-01-06T10:39:27.573Z,7.54
2018-01-06T10:40:27.571Z,7.68
2018-01-06T10:41:27.822Z,7.67
2018-01-06T10:42:27.535Z,7.58
2018-01-06T10:43:27.796Z,7.61
2018-01-06T10:44:27.513Z,7.58
2018-01-06T10:45:27.498Z,7.58
2018-01-06T10:46:27.758Z,7.49
2018-01-06T10:47:28.020Z,7.49
2018-01-06T10:48:27.475Z,7.51
2018-01-06T10:49:27.994Z,7.51
2018-01-06T10:50:27.440Z,7.52
2018-01-06T10:51:27.699Z,7.54
2018-01-06T10:52:27.954Z,7.56
2018-01-06T10:53:27.675Z,7.54
2018-01-06T10:54:27.696Z,7.52
2018-01-06T10:55:27.649Z,7.52
2018-01-06T10:56:27.370Z,7.49
2018-01-06T10:57:27.363Z,7.55
2018-01-06T10:58:27.612Z,7.47
2018-01-06T10:59:27.600Z,7.56
2018-01-06T11:00:27.319Z,7.52
2018-01-06T11:01:27.582Z,7.56
2018-01-06T11:02:27.291Z,7.58
2018-01-06T11:03:27.554Z,7.7
2018-01-06T11:04:27.542Z,7.78
2018-01-06T11:05:27.528Z,7.83
2018-01-06T11:06:27.789Z,7.8
2018-01-06T11:07:27.503Z,7.8
2018-01-06T11:08:27.494Z,7.92
2018-01-06T11:09:27.222Z,7.95
2018-01-06T11:10:27.198Z,7.99
2018-01-06T11:11:27.722Z,7.96
2018-01-06T11:12:27.460Z,7.99
2018-01-06T11:13:27.430Z,8.1
2018-01-06T11:14:27.148Z,8.01
2018-01-06T11:15:27.133Z,8.06
2018-01-06T11:16:27.125Z,8.03
2018-01-06T11:17:27.107Z,8.03
2018-01-06T11:18:27.100Z,8.1
2018-01-06T11:19:27.629Z,8.06
2018-01-06T11:20:27.371Z,8.04
2018-01-06T11:21:27.061Z,8.07
2018-01-06T11:22:27.324Z,8.09
2018-01-06T11:23:27.313Z,8.1
2018-01-06T11:24:27.573Z,7.98
2018-01-06T11:25:27.288Z,7.99
2018-01-06T11:26:27.289Z,7.96
2018-01-06T11:27:26.992Z,8.03
2018-01-06T11:28:27.258Z,8.04
2018-01-06T11:29:26.978Z,7.99
2018-01-06T11:30:26.958Z,7.93
2018-01-06T11:31:27.220Z,7.95
2018-01-06T11:32:27.210Z,7.86
2018-01-06T11:33:27.206Z,7.85
2018-01-06T11:34:27.464Z,7.88
2018-01-06T11:35:27.166Z,7.86
2018-01-06T11:36:26.886Z,7.82
2018-01-06T11:37:27.143Z,7.78
2018-01-06T11:38:27.135Z,7.83
2018-01-06T11:39:27.163Z,7.77
2018-01-06T11:40:26.844Z,7.82
2018-01-06T11:41:26.843Z,7.82
2018-01-06T11:42:27.084Z,7.78
2018-01-06T11:43:27.079Z,7.82
2018-01-06T11:44:27.337Z,7.78
2018-01-06T11:45:27.052Z,7.77
2018-01-06T11:46:27.038Z,7.8
2018-01-06T11:47:27.023Z,7.75
2018-01-06T11:48:27.016Z,7.78
2018-01-06T11:49:27.007Z,7.86
2018-01-06T11:50:27.267Z,7.85
2018-01-06T11:51:26.981Z,7.91
2018-01-06T11:52:27.243Z,8.01
2018-01-06T11:53:27.223Z,7.95
2018-01-06T11:54:26.671Z,7.96
2018-01-06T11:55:26.661Z,7.98
2018-01-06T11:56:26.649Z,8.04
2018-01-06T11:57:26.641Z,8.1
2018-01-06T11:58:26.626Z,8.06
2018-01-06T11:59:27.157Z,8.06
2018-01-06T12:00:26.872Z,8.16
2018-01-06T12:01:27.152Z,8.21
2018-01-06T12:02:27.143Z,8.11
2018-01-06T12:03:26.844Z,8.14
2018-01-06T12:04:26.837Z,8.19
2018-01-06T12:05:26.814Z,8.14
2018-01-06T12:06:26.532Z,8.25
2018-01-06T12:07:26.518Z,8.25
2018-01-06T12:08:26.509Z,8.25
2018-01-06T12:09:26.769Z,8.24
2018-01-06T12:10:26.760Z,8.24
2018-01-06T12:11:26.475Z,8.28
2018-01-06T12:12:27.021Z,8.34
2018-01-06T12:13:26.731Z,8.34
2018-01-06T12:14:26.709Z,8.35
2018-01-06T12:15:26.711Z,8.31
2018-01-06T12:16:26.466Z,8.34
2018-01-06T12:17:26.678Z,8.39
2018-01-06T12:18:26.664Z,8.39
2018-01-06T12:19:26.384Z,8.32
2018-01-06T12:20:26.645Z,8.4
2018-01-06T12:21:26.899Z,8.36
2018-01-06T12:22:26.616Z,8.46
2018-01-06T12:23:26.611Z,8.36
2018-01-06T12:24:26.592Z,8.36
2018-01-06T12:25:26.587Z,8.4
2018-01-06T12:26:26.573Z,8.34
2018-01-06T12:27:26.287Z,8.36
2018-01-06T12:28:26.547Z,8.29
2018-01-06T12:29:26.269Z,8.28
2018-01-06T12:30:26.533Z,8.21
2018-01-06T12:31:26.785Z,8.21
2018-01-06T12:32:26.510Z,8.25
2018-01-06T12:33:26.490Z,8.31
2018-01-06T12:34:26.482Z,8.25
2018-01-06T12:35:26.212Z,8.24
2018-01-06T12:36:26.729Z,8.32
2018-01-06T12:37:26.176Z,8.34
2018-01-06T12:38:26.431Z,8.4
2018-01-06T12:39:26.151Z,8.34
2018-01-06T12:40:26.137Z,8.36
2018-01-06T12:41:26.425Z,8.36
2018-01-06T12:42:26.394Z,8.31
2018-01-06T12:43:26.382Z,8.42
2018-01-06T12:44:26.362Z,8.36
2018-01-06T12:45:26.370Z,8.46
2018-01-06T12:46:26.341Z,8.42
2018-01-06T12:47:26.328Z,8.36
2018-01-06T12:48:26.048Z,8.42
2018-01-06T12:49:26.039Z,8.46
2018-01-06T12:50:26.303Z,8.4
2018-01-06T12:51:26.012Z,8.4
2018-01-06T12:52:26.011Z,8.43
2018-01-06T12:53:26.534Z,8.34
2018-01-06T12:54:25.981Z,8.36
2018-01-06T12:55:26.514Z,8.32
2018-01-06T12:56:26.228Z,8.34
2018-01-06T12:57:25.948Z,8.34
2018-01-06T12:58:26.209Z,8.31
2018-01-06T12:59:26.218Z,8.32
2018-01-06T13:00:26.187Z,8.31
2018-01-06T13:01:26.172Z,8.22
2018-01-06T13:02:25.901Z,8.19
2018-01-06T13:03:26.429Z,8.06
2018-01-06T13:04:25.865Z,8.09
2018-01-06T13:05:26.123Z,8.14
2018-01-06T13:06:26.114Z,8.16
2018-01-06T13:07:25.851Z,8.14
2018-01-06T13:08:25.832Z,8.09
2018-01-06T13:09:25.808Z,8.06
2018-01-06T13:10:25.799Z,8.04
2018-01-06T13:11:26.057Z,8.1
2018-01-06T13:12:26.048Z,8.1
2018-01-06T13:13:26.315Z,8.1
2018-01-06T13:14:26.058Z,8.01
2018-01-06T13:15:25.752Z,8.07
2018-01-06T13:16:26.019Z,7.96
2018-01-06T13:17:26.000Z,8.04
2018-01-06T13:18:25.976Z,7.96
2018-01-06T13:19:25.967Z,7.99
2018-01-06T13:20:25.685Z,7.96
2018-01-06T13:21:25.951Z,7.98
2018-01-06T13:22:25.681Z,7.93